createdAt,value
2019-02-09T00:01:06.094Z,3.40
2019-02-09T00:03:39.840Z,3.50
2019-02-09T00:06:12.455Z,3.50
2019-02-09T00:08:44.357Z,3.50
2019-02-09T00:11:16.721Z,3.80
2019-02-09T00:13:49.238Z,3.80
2019-02-09T00:16:21.267Z,3.90
2019-02-09T00:18:53.111Z,3.90
2019-02-09T00:21:23.758Z,4.00
2019-02-09T00:23:54.558Z,4.10
2019-02-09T00:26:25.244Z,4.10
2019-02-09T00:28:58.818Z,4.10
2019-02-09T00:31:29.639Z,4.10
2019-02-09T00:34:00.525Z,4.20
2019-02-09T00:36:31.092Z,4.20
2019-02-09T00:39:02.449Z,4.30
2019-02-09T00:41:33.270Z,4.30
2019-02-09T00:44:04.039Z,4.30
2019-02-09T00:46:34.760Z,4.20
2019-02-09T00:49:05.955Z,4.20
2019-02-09T00:51:42.364Z,4.20
2019-02-09T00:54:12.949Z,4.20
2019-02-09T00:56:43.540Z,4.20
2019-02-09T00:59:15.947Z,4.20
2019-02-09T01:01:46.642Z,4.30
2019-02-09T01:04:20.679Z,4.30
2019-02-09T01:06:51.334Z,4.30
2019-02-09T01:09:25.689Z,4.30
2019-02-09T01:11:57.549Z,4.40
2019-02-09T01:14:30.842Z,4.50
2019-02-09T01:17:04.355Z,4.60
2019-02-09T01:19:35.637Z,4.70
2019-02-09T01:22:07.375Z,4.80
2019-02-09T01:24:39.568Z,4.70
2019-02-09T01:27:13.275Z,4.60
2019-02-09T01:29:43.974Z,4.50
2019-02-09T01:32:17.740Z,4.70
2019-02-09T01:34:51.101Z,4.70
2019-02-09T01:37:21.832Z,4.70
2019-02-09T01:39:53.931Z,4.60
2019-02-09T01:42:24.537Z,4.60
2019-02-09T01:44:55.037Z,4.50
2019-02-09T01:47:25.623Z,4.40
2019-02-09T01:49:56.135Z,4.00
2019-02-09T01:52:26.794Z,3.60
2019-02-09T01:54:59.092Z,3.20
2019-02-09T01:57:30.967Z,2.90
2019-02-09T02:00:10.434Z,2.60
2019-02-09T02:02:37.351Z,2.50
2019-02-09T02:05:12.121Z,2.40
2019-02-09T02:07:43.539Z,2.20
2019-02-09T02:10:26.114Z,2.10
2019-02-09T02:12:57.746Z,2.10
2019-02-09T02:15:32.152Z,2.00
2019-02-09T02:18:02.937Z,2.00
2019-02-09T02:20:40.505Z,2.70
2019-02-09T02:23:11.254Z,3.60
2019-02-09T02:25:41.805Z,4.40
2019-02-09T02:28:12.237Z,4.90
2019-02-09T02:30:42.884Z,5.10
2019-02-09T02:33:13.506Z,5.40
2019-02-09T02:35:50.166Z,5.60
2019-02-09T02:38:20.894Z,5.70
2019-02-09T02:40:55.706Z,5.70
2019-02-09T02:43:27.818Z,5.70
2019-02-09T02:45:58.685Z,5.70
2019-02-09T02:48:29.503Z,5.50
2019-02-09T02:51:01.478Z,5.40
2019-02-09T02:53:32.130Z,5.30
2019-02-09T02:56:02.625Z,5.20
2019-02-09T02:58:34.150Z,5.00
2019-02-09T03:01:04.770Z,4.90
2019-02-09T03:03:41.012Z,4.60
2019-02-09T03:06:12.040Z,4.50
2019-02-09T03:08:44.559Z,4.40
2019-02-09T03:11:15.116Z,4.20
2019-02-09T03:13:45.614Z,3.90
2019-02-09T03:16:21.188Z,4.00
2019-02-09T03:18:51.813Z,3.80
2019-02-09T03:21:22.750Z,3.60
2019-02-09T03:24:19.676Z,3.50
2019-02-09T03:26:50.608Z,3.30
2019-02-09T03:29:23.043Z,3.20
2019-02-09T03:31:58.933Z,3.20
2019-02-09T03:34:29.599Z,3.10
2019-02-09T03:37:00.339Z,3.10
2019-02-09T03:39:38.730Z,3.10
2019-02-09T03:42:09.146Z,3.00
2019-02-09T03:51:28.195Z,2.80
2019-02-09T03:53:59.161Z,2.70
2019-02-09T04:00:05.181Z,2.40
2019-02-09T04:02:39.697Z,2.40
2019-02-09T04:14:57.275Z,2.20
2019-02-09T04:17:34.874Z,2.20
2019-02-09T04:20:28.575Z,2.20
2019-02-09T04:39:32.091Z,2.20
2019-02-09T05:21:52.460Z,2.30
2019-02-09T05:27:25.460Z,2.40
2019-02-09T05:30:00.505Z,2.50
2019-02-09T05:35:39.044Z,2.60
2019-02-09T05:38:34.163Z,2.70
2019-02-09T05:47:38.753Z,2.80
2019-02-09T05:52:59.164Z,3.10
2019-02-09T05:55:39.512Z,3.10
2019-02-09T05:58:20.758Z,3.20
2019-02-09T06:00:58.699Z,3.30
2019-02-09T06:03:49.094Z,3.50
2019-02-09T06:07:00.035Z,3.40
2019-02-09T06:09:44.572Z,3.40
2019-02-09T06:16:18.048Z,3.60
2019-02-09T06:19:10.123Z,3.60
2019-02-09T06:24:54.575Z,3.80
2019-02-09T06:27:35.530Z,3.90
2019-02-09T06:33:29.834Z,4.00
2019-02-09T06:36:09.455Z,3.90
2019-02-09T06:38:52.114Z,4.00
2019-02-09T06:41:26.052Z,3.90
2019-02-09T06:47:18.132Z,3.90
2019-02-09T06:50:16.694Z,3.80
2019-02-09T06:52:58.152Z,3.80
2019-02-09T06:58:34.409Z,3.80
2019-02-09T07:04:16.687Z,4.00
2019-02-09T07:10:26.685Z,3.90
2019-02-09T07:13:11.805Z,3.80
2019-02-09T07:15:48.682Z,3.90
2019-02-09T07:18:20.668Z,3.90
2019-02-09T08:02:25.219Z,4.60
2019-02-09T08:04:58.022Z,5.00
2019-02-09T08:07:36.568Z,5.10
2019-02-09T08:33:55.529Z,5.60
2019-02-09T08:36:29.341Z,6.00
2019-02-09T08:39:03.279Z,6.10
2019-02-09T08:51:13.617Z,6.90
2019-02-09T08:56:33.139Z,6.80
2019-02-09T08:59:03.863Z,6.40
2019-02-09T09:01:34.439Z,6.40
2019-02-09T09:04:05.348Z,6.60
2019-02-09T09:06:37.580Z,6.40
2019-02-09T09:09:15.899Z,6.20
2019-02-09T09:11:54.069Z,6.20
2019-02-09T09:14:24.510Z,6.50
2019-02-09T09:16:55.294Z,6.90
2019-02-09T09:19:30.428Z,7.00
2019-02-09T09:22:01.003Z,7.00
2019-02-09T09:24:36.448Z,7.30
2019-02-09T09:27:33.848Z,7.30
2019-02-09T09:30:09.394Z,7.60
2019-02-09T09:32:39.933Z,7.70
2019-02-09T09:35:16.786Z,7.70
2019-02-09T09:37:47.937Z,7.30
2019-02-09T09:40:29.176Z,7.30
2019-02-09T09:42:59.846Z,7.40
2019-02-09T09:45:39.286Z,7.40
2019-02-09T10:17:23.985Z,7.90
2019-02-09T10:19:54.846Z,7.90
2019-02-09T10:22:26.949Z,8.20
2019-02-09T10:24:58.257Z,8.10
2019-02-09T10:27:36.783Z,8.40
2019-02-09T10:30:17.553Z,8.20
2019-02-09T10:32:48.377Z,8.10
2019-02-09T10:38:26.638Z,7.40
2019-02-09T10:40:57.430Z,7.10
2019-02-09T10:43:29.851Z,7.00
2019-02-09T10:46:00.384Z,6.80
2019-02-09T10:48:31.175Z,6.70
2019-02-09T11:42:20.218Z,8.80
2019-02-09T11:44:50.771Z,8.80
2019-02-09T11:47:21.292Z,8.40
2019-02-09T11:49:51.818Z,8.10
2019-02-09T11:52:22.351Z,7.80
2019-02-09T11:54:52.799Z,7.70
2019-02-09T11:57:23.802Z,7.60
2019-02-09T11:59:55.165Z,7.60
2019-02-09T12:02:26.411Z,7.60
2019-02-09T12:04:56.961Z,7.40
2019-02-09T12:07:27.846Z,7.50
2019-02-09T12:09:58.939Z,7.50
2019-02-09T12:12:30.020Z,7.40
2019-02-09T12:15:00.961Z,7.40
2019-02-09T12:17:31.555Z,7.40
2019-02-09T12:20:02.195Z,7.50
2019-02-09T12:22:32.813Z,7.90
2019-02-09T12:25:05.145Z,8.00
2019-02-09T12:27:37.622Z,8.10
2019-02-09T12:30:26.791Z,8.10
2019-02-09T12:32:57.680Z,7.60
2019-02-09T12:35:29.432Z,7.30
2019-02-09T12:38:00.233Z,7.00
2019-02-09T12:40:33.675Z,6.90
2019-02-09T12:43:06.109Z,6.70
2019-02-09T12:45:41.769Z,6.50
2019-02-09T13:06:23.177Z,6.60
2019-02-09T13:08:54.448Z,6.80
2019-02-09T13:11:25.494Z,6.70
2019-02-09T13:13:56.466Z,6.70
2019-02-09T13:16:27.152Z,6.80
2019-02-09T13:18:58.099Z,6.80
2019-02-09T13:21:28.663Z,6.80
2019-02-09T13:23:59.944Z,6.70
2019-02-09T13:26:30.946Z,6.60
2019-02-09T13:29:02.350Z,6.70
2019-02-09T13:31:33.055Z,6.80
2019-02-09T13:34:04.592Z,6.80
2019-02-09T13:36:35.764Z,6.90
2019-02-09T13:39:08.435Z,7.00
2019-02-09T13:41:39.075Z,7.10
2019-02-09T13:44:09.744Z,7.10
2019-02-09T13:46:40.221Z,7.00
2019-02-09T13:49:11.924Z,7.00
2019-02-09T13:51:43.136Z,6.80
2019-02-09T13:57:05.219Z,6.50
2019-02-09T13:59:47.588Z,6.50
2019-02-09T14:09:03.217Z,6.40
2019-02-09T14:11:45.439Z,6.30
2019-02-09T14:14:19.164Z,6.30
2019-02-09T14:16:49.841Z,6.20
2019-02-09T14:19:20.661Z,6.20
2019-02-09T14:21:51.262Z,6.10
2019-02-09T14:24:22.316Z,6.10
2019-02-09T14:26:53.103Z,6.00
2019-02-09T14:29:24.592Z,6.00
2019-02-09T14:31:57.267Z,6.00
2019-02-09T14:34:29.521Z,6.00
2019-02-09T14:37:00.488Z,5.90
2019-02-09T14:39:31.592Z,5.90
2019-02-09T14:42:02.963Z,5.90
2019-02-09T14:44:34.418Z,5.80
2019-02-09T14:47:05.627Z,5.80
2019-02-09T14:49:36.527Z,5.80
2019-02-09T14:52:07.775Z,5.80
2019-02-09T14:54:38.923Z,5.70
2019-02-09T14:57:09.538Z,5.80
2019-02-09T14:59:40.258Z,5.80
2019-02-09T15:02:13.151Z,5.90
2019-02-09T15:04:43.898Z,5.90
